createdAt,value
2024-03-28T00:00:05.978Z,26.58
2024-03-28T00:01:05.989Z,26.50
2024-03-28T00:02:05.983Z,26.45
2024-03-28T00:03:05.979Z,26.50
2024-03-28T00:04:05.973Z,26.54
2024-03-28T00:05:05.974Z,26.53
2024-03-28T00:06:05.971Z,26.52
2024-03-28T00:07:05.978Z,26.44
2024-03-28T00:08:05.964Z,26.47
2024-03-28T00:09:05.963Z,26.49
2024-03-28T00:10:05.963Z,26.50
2024-03-28T00:11:05.959Z,26.49
2024-03-28T00:12:05.967Z,26.41
2024-03-28T00:13:05.950Z,26.40
2024-03-28T00:14:05.958Z,26.44
2024-03-28T00:15:05.947Z,26.47
2024-03-28T00:16:05.955Z,26.49
2024-03-28T00:17:05.952Z,26.40
2024-03-28T00:18:05.950Z,26.35
2024-03-28T00:19:08.218Z,26.39
2024-03-28T00:20:05.941Z,26.45
2024-03-28T00:21:05.969Z,26.46
2024-03-28T00:22:05.997Z,26.43
2024-03-28T00:23:06.029Z,26.38
2024-03-28T00:24:06.064Z,26.42
2024-03-28T00:25:06.102Z,26.43
2024-03-28T00:26:06.134Z,26.46
2024-03-28T00:27:06.174Z,26.45
2024-03-28T00:28:06.196Z,26.47
2024-03-28T00:29:06.249Z,26.47
2024-03-28T00:30:06.258Z,26.47
2024-03-28T00:31:06.289Z,26.46
2024-03-28T00:32:06.325Z,26.48
2024-03-28T00:33:06.347Z,26.48
2024-03-28T00:34:06.382Z,26.47
2024-03-28T00:35:06.414Z,26.47
2024-03-28T00:36:06.436Z,26.50
2024-03-28T00:37:06.473Z,26.48
2024-03-28T00:38:06.497Z,26.50
2024-03-28T00:39:06.537Z,26.50
2024-03-28T00:40:06.561Z,26.52
2024-03-28T00:41:06.605Z,26.51
2024-03-28T00:42:06.613Z,26.49
2024-03-28T00:43:06.646Z,26.50
2024-03-28T00:44:06.676Z,26.49
2024-03-28T00:45:06.718Z,26.44
2024-03-28T00:46:06.731Z,26.33
2024-03-28T00:47:06.743Z,26.32
2024-03-28T00:48:06.766Z,26.37
2024-03-28T00:49:06.799Z,26.39
2024-03-28T00:50:06.834Z,26.42
2024-03-28T00:51:06.945Z,26.33
2024-03-28T00:52:06.895Z,26.31
2024-03-28T00:53:06.908Z,26.33
2024-03-28T00:54:06.940Z,26.33
2024-03-28T00:55:06.972Z,26.36
2024-03-28T00:56:07.004Z,26.42
2024-03-28T00:57:07.039Z,26.41
2024-03-28T00:58:07.093Z,26.43
2024-03-28T00:59:07.079Z,26.42
2024-03-28T01:00:07.128Z,26.41
2024-03-28T01:01:07.148Z,26.43
2024-03-28T01:02:07.175Z,26.42
2024-03-28T01:03:07.202Z,26.45
2024-03-28T01:04:07.228Z,26.46
2024-03-28T01:05:07.260Z,26.45
2024-03-28T01:06:07.294Z,26.45
2024-03-28T01:07:07.331Z,26.46
2024-03-28T01:08:07.361Z,26.46
2024-03-28T01:09:07.387Z,26.46
2024-03-28T01:10:07.413Z,26.49
2024-03-28T01:11:07.450Z,26.49
2024-03-28T01:12:07.501Z,26.48
2024-03-28T01:13:07.515Z,26.49
2024-03-28T01:14:07.535Z,26.51
2024-03-28T01:15:07.575Z,26.51
2024-03-28T01:16:07.591Z,26.51
2024-03-28T01:17:07.650Z,26.51
2024-03-28T01:18:09.658Z,26.52
2024-03-28T01:19:07.913Z,26.53
2024-03-28T01:20:07.663Z,26.53
2024-03-28T01:21:07.667Z,26.56
2024-03-28T01:22:07.694Z,26.55
2024-03-28T01:23:07.672Z,26.53
2024-03-28T01:24:07.666Z,26.54
2024-03-28T01:25:07.655Z,26.54
2024-03-28T01:26:07.668Z,26.55
2024-03-28T01:27:07.652Z,26.53
2024-03-28T01:28:10.232Z,26.55
2024-03-28T01:29:07.630Z,26.58
2024-03-28T01:30:07.643Z,26.55
2024-03-28T01:31:07.624Z,26.56
2024-03-28T01:32:07.633Z,26.56
2024-03-28T01:33:07.617Z,26.57
2024-03-28T01:34:07.616Z,26.59
2024-03-28T01:35:07.594Z,26.56
2024-03-28T01:36:07.601Z,26.59
2024-03-28T01:37:10.215Z,26.59
2024-03-28T01:38:07.590Z,26.57
2024-03-28T01:39:07.590Z,26.59
2024-03-28T01:40:07.577Z,26.58
2024-03-28T01:41:07.571Z,26.59
2024-03-28T01:42:07.571Z,26.59
2024-03-28T01:43:07.562Z,26.58
2024-03-28T01:44:07.564Z,26.61
2024-03-28T01:45:07.563Z,26.60
2024-03-28T01:46:07.657Z,26.62
2024-03-28T01:47:25.824Z,26.61
2024-03-28T01:48:08.758Z,26.61
2024-03-28T01:49:07.571Z,26.61
2024-03-28T01:50:07.569Z,26.63
2024-03-28T01:51:07.572Z,26.62
2024-03-28T01:52:07.574Z,26.63
2024-03-28T01:53:07.576Z,26.63
2024-03-28T01:54:07.580Z,26.62
2024-03-28T01:55:07.571Z,26.62
2024-03-28T01:56:07.570Z,26.62
2024-03-28T01:57:07.611Z,26.64
2024-03-28T01:58:07.565Z,26.63
2024-03-28T01:59:07.571Z,26.64
2024-03-28T02:00:07.606Z,26.62
2024-03-28T02:01:07.562Z,26.62
2024-03-28T02:02:07.638Z,26.61
2024-03-28T02:03:07.575Z,26.61
2024-03-28T02:04:07.576Z,26.62
2024-03-28T02:05:07.584Z,26.60
2024-03-28T02:06:07.581Z,26.62
2024-03-28T02:07:07.591Z,26.60
2024-03-28T02:08:07.780Z,26.62
2024-03-28T02:09:07.644Z,26.60
2024-03-28T02:10:07.676Z,26.63
2024-03-28T02:11:07.693Z,26.64
2024-03-28T02:12:09.907Z,26.61
2024-03-28T02:13:07.713Z,26.62
2024-03-28T02:14:07.733Z,26.65
2024-03-28T02:15:07.721Z,26.64
2024-03-28T02:16:07.713Z,26.64
2024-03-28T02:17:07.711Z,26.64
2024-03-28T02:18:07.707Z,26.66
2024-03-28T02:19:07.713Z,26.63
2024-03-28T02:20:07.702Z,26.63
2024-03-28T02:21:07.689Z,26.62
2024-03-28T02:22:07.709Z,26.61
2024-03-28T02:23:07.680Z,26.45
2024-03-28T02:24:07.694Z,26.48
2024-03-28T02:25:07.677Z,26.49
2024-03-28T02:26:07.683Z,26.57
2024-03-28T02:27:07.685Z,26.59
2024-03-28T02:28:07.681Z,26.60
2024-03-28T02:29:07.698Z,26.60
2024-03-28T02:30:07.707Z,26.60
2024-03-28T02:31:07.670Z,26.61
2024-03-28T02:32:07.676Z,26.60
2024-03-28T02:33:07.664Z,26.55
2024-03-28T02:34:07.666Z,26.56
2024-03-28T02:35:07.674Z,26.62
2024-03-28T02:36:07.658Z,26.61
2024-03-28T02:37:07.667Z,26.63
2024-03-28T02:38:07.664Z,26.62
2024-03-28T02:39:07.660Z,26.60
2024-03-28T02:40:07.651Z,26.62
2024-03-28T02:41:07.684Z,26.62
2024-03-28T02:42:07.750Z,26.59
2024-03-28T02:43:07.679Z,26.61
2024-03-28T02:44:07.663Z,26.59
2024-03-28T02:45:07.666Z,26.61
2024-03-28T02:46:07.667Z,26.63
2024-03-28T02:47:07.678Z,26.62
2024-03-28T02:48:07.667Z,26.58
2024-03-28T02:49:07.662Z,26.51
2024-03-28T02:50:07.659Z,26.40
2024-03-28T02:51:07.652Z,26.39
2024-03-28T02:52:07.654Z,26.35
2024-03-28T02:53:07.653Z,26.36
2024-03-28T02:54:07.636Z,26.38
2024-03-28T02:55:07.630Z,26.44
2024-03-28T02:56:07.629Z,26.38
2024-03-28T02:57:07.643Z,26.34
2024-03-28T02:58:07.632Z,26.33
2024-03-28T02:59:07.635Z,26.38
2024-03-28T03:00:07.642Z,26.40
2024-03-28T03:01:07.635Z,26.44
2024-03-28T03:02:07.645Z,26.45
2024-03-28T03:03:07.628Z,26.45
2024-03-28T03:04:07.644Z,26.44
2024-03-28T03:05:07.624Z,26.44
2024-03-28T03:06:07.652Z,26.43
2024-03-28T03:07:07.644Z,26.43
2024-03-28T03:08:07.645Z,26.43
2024-03-28T03:09:07.629Z,26.36
2024-03-28T03:10:07.653Z,26.31
2024-03-28T03:11:07.651Z,26.25
2024-03-28T03:12:07.659Z,26.26
2024-03-28T03:13:07.654Z,26.31
2024-03-28T03:14:07.650Z,26.32
2024-03-28T03:15:07.656Z,26.19
2024-03-28T03:16:07.683Z,26.18
2024-03-28T03:17:07.659Z,26.17
2024-03-28T03:18:07.663Z,26.26
2024-03-28T03:19:07.665Z,26.30
2024-03-28T03:20:07.659Z,26.31
2024-03-28T03:21:07.661Z,26.31
2024-03-28T03:22:07.665Z,26.23
2024-03-28T03:23:07.661Z,26.14
2024-03-28T03:24:07.675Z,26.15
2024-03-28T03:25:07.685Z,26.19
2024-03-28T03:26:07.720Z,26.23
2024-03-28T03:27:07.756Z,26.26
2024-03-28T03:28:07.792Z,26.27
2024-03-28T03:29:07.847Z,26.28
2024-03-28T03:30:07.881Z,26.29
2024-03-28T03:31:07.912Z,26.31
2024-03-28T03:32:07.955Z,26.29
2024-03-28T03:33:07.987Z,26.31
2024-03-28T03:34:08.024Z,26.31
2024-03-28T03:35:08.070Z,26.32
2024-03-28T03:36:08.111Z,26.31
2024-03-28T03:37:08.147Z,26.33
2024-03-28T03:38:08.185Z,26.29
2024-03-28T03:39:08.280Z,26.31
2024-03-28T03:40:08.274Z,26.32
2024-03-28T03:41:08.290Z,26.31
2024-03-28T03:42:08.331Z,26.31
2024-03-28T03:43:08.356Z,26.31
2024-03-28T03:44:08.399Z,26.32
2024-03-28T03:45:08.439Z,26.35
2024-03-28T03:46:08.467Z,26.34
2024-03-28T03:47:08.508Z,26.36
2024-03-28T03:48:08.536Z,26.35
2024-03-28T03:49:08.578Z,26.35
2024-03-28T03:50:08.615Z,26.36
2024-03-28T03:51:08.644Z,26.35
2024-03-28T03:52:08.693Z,26.36
2024-03-28T03:53:08.752Z,26.35
2024-03-28T03:54:08.766Z,26.35
2024-03-28T03:55:08.782Z,26.34
2024-03-28T03:56:08.818Z,26.34
2024-03-28T03:57:08.859Z,26.37
2024-03-28T03:58:08.892Z,26.37
2024-03-28T03:59:08.911Z,26.36
2024-03-28T04:00:08.960Z,26.37
2024-03-28T04:01:08.971Z,26.40
2024-03-28T04:02:09.024Z,26.39
2024-03-28T04:03:09.050Z,26.38
2024-03-28T04:04:09.087Z,26.40
2024-03-28T04:05:09.116Z,26.39
2024-03-28T04:06:09.151Z,26.35
2024-03-28T04:07:09.181Z,26.32
2024-03-28T04:08:09.220Z,26.25
2024-03-28T04:09:09.244Z,26.22
2024-03-28T04:10:09.290Z,26.20
2024-03-28T04:11:09.311Z,26.28
2024-03-28T04:12:09.368Z,26.31
2024-03-28T04:13:09.397Z,26.26
2024-03-28T04:14:09.422Z,26.21
2024-03-28T04:15:09.459Z,26.22
2024-03-28T04:16:09.496Z,26.25
2024-03-28T04:17:09.534Z,26.25
2024-03-28T04:18:09.582Z,26.30
2024-03-28T04:19:09.605Z,26.31
2024-03-28T04:20:09.647Z,26.31
2024-03-28T04:21:09.683Z,26.32
2024-03-28T04:22:09.725Z,26.31
2024-03-28T04:23:09.755Z,26.30
2024-03-28T04:24:09.821Z,26.31
2024-03-28T04:25:09.838Z,26.32
2024-03-28T04:26:09.889Z,26.33
2024-03-28T04:27:09.916Z,26.31
2024-03-28T04:28:09.949Z,26.33
2024-03-28T04:29:17.196Z,26.36
2024-03-28T04:30:17.180Z,26.34
2024-03-28T04:31:24.566Z,26.36
2024-03-28T04:32:24.585Z,26.35
2024-03-28T04:33:24.550Z,26.36
2024-03-28T04:34:24.652Z,26.31
2024-03-28T04:35:24.589Z,26.18
2024-03-28T04:36:24.588Z,26.19
2024-03-28T04:37:24.603Z,26.21
2024-03-28T04:38:24.579Z,26.26
2024-03-28T04:39:24.594Z,26.30
2024-03-28T04:40:24.648Z,26.29
2024-03-28T04:41:24.592Z,26.30
2024-03-28T04:42:24.577Z,26.30
2024-03-28T04:43:24.600Z,26.29
2024-03-28T04:44:24.586Z,26.31
2024-03-28T04:45:24.582Z,26.31
2024-03-28T04:46:24.622Z,26.28
2024-03-28T04:47:24.598Z,26.27
2024-03-28T04:48:24.649Z,26.28
2024-03-28T04:49:24.621Z,26.30
2024-03-28T04:50:24.618Z,26.32
2024-03-28T04:51:24.625Z,26.29
2024-03-28T04:52:24.692Z,26.31
2024-03-28T04:53:24.631Z,26.32
2024-03-28T04:54:24.639Z,26.32
2024-03-28T04:55:27.719Z,26.33
2024-03-28T04:56:24.646Z,26.33
2024-03-28T04:57:24.654Z,26.33
2024-03-28T04:58:24.700Z,26.32
2024-03-28T04:59:24.657Z,26.30
2024-03-28T05:00:24.703Z,26.31
2024-03-28T05:01:24.713Z,26.33
2024-03-28T05:02:24.688Z,26.33
2024-03-28T05:03:24.686Z,26.31
2024-03-28T05:04:24.705Z,26.31
2024-03-28T05:05:24.710Z,26.32
2024-03-28T05:06:24.702Z,26.33
2024-03-28T05:07:24.795Z,26.35
2024-03-28T05:08:24.724Z,26.31
2024-03-28T05:09:24.728Z,26.33
2024-03-28T05:10:24.793Z,26.33
2024-03-28T05:11:25.852Z,26.33
2024-03-28T05:12:24.736Z,26.36
2024-03-28T05:13:24.757Z,26.31
2024-03-28T05:14:24.747Z,26.30
2024-03-28T05:15:24.746Z,26.32
2024-03-28T05:16:24.792Z,26.32
2024-03-28T05:17:24.784Z,26.34
2024-03-28T05:18:24.761Z,26.33
2024-03-28T05:19:24.792Z,26.35
2024-03-28T05:20:24.774Z,26.34
2024-03-28T05:21:24.771Z,26.34
2024-03-28T05:22:24.806Z,26.34
2024-03-28T05:23:24.770Z,26.35
2024-03-28T05:24:24.791Z,26.33
2024-03-28T05:25:24.844Z,26.34
2024-03-28T05:26:24.772Z,26.35
2024-03-28T05:27:27.479Z,26.34
2024-03-28T05:28:24.794Z,26.38
2024-03-28T05:29:24.817Z,26.34
2024-03-28T05:30:24.806Z,26.32
2024-03-28T05:31:24.829Z,26.34
2024-03-28T05:32:24.806Z,26.33
2024-03-28T05:33:24.814Z,26.32
2024-03-28T05:34:24.827Z,26.33
2024-03-28T05:35:24.792Z,26.32
2024-03-28T05:36:24.785Z,26.31
2024-03-28T05:37:24.818Z,26.26
2024-03-28T05:38:24.803Z,26.18
2024-03-28T05:39:24.802Z,26.10
2024-03-28T05:40:24.837Z,26.09
2024-03-28T05:41:24.788Z,26.15
2024-03-28T05:42:24.798Z,26.18
2024-03-28T05:43:24.822Z,26.24
2024-03-28T05:44:24.807Z,26.25
2024-03-28T05:45:24.801Z,26.24
2024-03-28T05:46:24.819Z,26.26
2024-03-28T05:47:24.832Z,26.21
2024-03-28T05:48:24.841Z,26.23
2024-03-28T05:49:24.885Z,26.24
2024-03-28T05:50:24.857Z,26.20
2024-03-28T05:51:24.839Z,26.10
2024-03-28T05:52:24.892Z,26.07
2024-03-28T05:53:24.847Z,26.11
2024-03-28T05:54:24.848Z,26.15
2024-03-28T05:55:24.851Z,26.18
2024-03-28T05:56:24.853Z,26.20
2024-03-28T05:57:24.858Z,26.18
2024-03-28T05:58:24.876Z,26.18
2024-03-28T05:59:24.850Z,26.21
2024-03-28T06:00:24.865Z,26.20
2024-03-28T06:01:24.886Z,26.20
2024-03-28T06:02:24.861Z,26.17
2024-03-28T06:03:27.403Z,26.18
2024-03-28T06:04:24.875Z,26.16
2024-03-28T06:05:24.862Z,26.19
2024-03-28T06:06:24.865Z,26.19
2024-03-28T06:07:24.869Z,26.18
2024-03-28T06:08:24.865Z,26.15
2024-03-28T06:09:24.858Z,26.04
2024-03-28T06:10:24.890Z,26.02
2024-03-28T06:11:24.859Z,26.01
2024-03-28T06:12:24.866Z,26.04
2024-03-28T06:13:24.878Z,26.07
2024-03-28T06:14:24.844Z,25.97
2024-03-28T06:15:24.848Z,25.94
2024-03-28T06:16:24.854Z,25.95
2024-03-28T06:17:24.832Z,25.94
2024-03-28T06:18:24.876Z,25.98
2024-03-28T06:19:24.820Z,25.96
2024-03-28T06:20:24.813Z,25.90
2024-03-28T06:21:24.817Z,25.95
2024-03-28T06:22:27.064Z,25.90
2024-03-28T06:23:24.803Z,25.92
2024-03-28T06:24:24.797Z,25.99
2024-03-28T06:25:24.827Z,25.85
2024-03-28T06:26:24.855Z,25.83
2024-03-28T06:27:24.898Z,25.82
2024-03-28T06:28:24.942Z,25.85
2024-03-28T06:29:24.956Z,25.89
2024-03-28T06:30:25.020Z,25.82
2024-03-28T06:31:25.096Z,25.79
2024-03-28T06:32:25.133Z,25.79
2024-03-28T06:33:25.117Z,25.80
2024-03-28T06:34:25.162Z,25.83
2024-03-28T06:35:25.179Z,25.84
2024-03-28T06:36:25.222Z,25.76
2024-03-28T06:37:25.213Z,25.75
2024-03-28T06:38:25.213Z,25.78
2024-03-28T06:39:25.210Z,25.79
2024-03-28T06:40:25.216Z,25.81
2024-03-28T06:41:25.205Z,25.72
2024-03-28T06:42:25.197Z,25.77
2024-03-28T06:43:25.202Z,25.74
2024-03-28T06:44:25.173Z,25.78
2024-03-28T06:45:25.165Z,25.77
2024-03-28T06:46:25.196Z,25.72
2024-03-28T06:47:25.163Z,25.63
2024-03-28T06:48:25.211Z,25.69
2024-03-28T06:49:25.159Z,25.72
2024-03-28T06:50:25.185Z,25.75
2024-03-28T06:51:25.243Z,25.72
2024-03-28T06:52:25.326Z,25.62
2024-03-28T06:53:25.302Z,25.65
2024-03-28T06:54:25.343Z,25.69
2024-03-28T06:55:25.405Z,25.73
2024-03-28T06:56:25.411Z,25.73
2024-03-28T06:57:25.454Z,25.63
2024-03-28T06:58:25.537Z,25.60
2024-03-28T06:59:25.522Z,25.61
2024-03-28T07:00:25.563Z,25.63
2024-03-28T07:01:25.673Z,25.65
2024-03-28T07:02:25.634Z,25.58
2024-03-28T07:03:25.674Z,25.57
2024-03-28T07:04:25.711Z,25.54
2024-03-28T07:05:25.736Z,25.55
2024-03-28T07:06:25.779Z,25.63
2024-03-28T07:07:25.838Z,25.57
2024-03-28T07:08:25.844Z,25.48
2024-03-28T07:09:25.884Z,25.51
2024-03-28T07:10:25.982Z,25.52
2024-03-28T07:11:25.969Z,25.54
2024-03-28T07:12:26.036Z,25.55
2024-03-28T07:13:26.073Z,25.43
2024-03-28T07:14:26.091Z,25.46
2024-03-28T07:15:26.130Z,25.45
2024-03-28T07:16:26.179Z,25.49
2024-03-28T07:17:26.292Z,25.55
2024-03-28T07:18:26.249Z,25.57
2024-03-28T07:19:26.392Z,25.58
2024-03-28T07:20:26.299Z,25.61
2024-03-28T07:21:26.346Z,25.60
2024-03-28T07:22:26.404Z,25.65
2024-03-28T07:23:26.403Z,25.65
2024-03-28T07:24:26.454Z,25.64
2024-03-28T07:25:26.504Z,25.64
2024-03-28T07:26:26.490Z,25.65
2024-03-28T07:27:26.529Z,25.69
2024-03-28T07:28:26.585Z,25.67
2024-03-28T07:29:26.593Z,25.66
2024-03-28T07:30:26.631Z,25.67
2024-03-28T07:31:26.694Z,25.65
2024-03-28T07:32:26.677Z,25.63
2024-03-28T07:33:26.703Z,25.66
2024-03-28T07:34:26.763Z,25.64
2024-03-28T07:35:28.944Z,25.63
2024-03-28T07:36:26.823Z,25.63
2024-03-28T07:37:26.901Z,25.63
2024-03-28T07:38:26.907Z,25.65
2024-03-28T07:39:26.949Z,25.59
2024-03-28T07:40:26.998Z,25.59
2024-03-28T07:41:27.024Z,25.64
2024-03-28T07:42:27.069Z,25.64
2024-03-28T07:43:27.129Z,25.58
2024-03-28T07:44:27.151Z,25.52
2024-03-28T07:45:27.193Z,25.53
2024-03-28T07:46:27.199Z,25.48
2024-03-28T07:47:27.292Z,25.55
2024-03-28T07:48:27.286Z,25.54
2024-03-28T07:49:27.324Z,25.51
2024-03-28T07:50:27.371Z,25.46
2024-03-28T07:51:27.381Z,25.45
2024-03-28T07:52:27.441Z,25.52
2024-03-28T07:53:27.459Z,25.62
2024-03-28T07:54:27.490Z,25.60
2024-03-28T07:55:27.545Z,25.51
2024-03-28T07:56:27.574Z,25.56
2024-03-28T07:57:27.601Z,25.54
2024-03-28T07:58:27.626Z,25.60
2024-03-28T07:59:27.591Z,25.62
2024-03-28T08:00:27.595Z,25.67
2024-03-28T08:01:27.583Z,25.57
2024-03-28T08:02:27.588Z,25.60
2024-03-28T08:03:27.564Z,25.57
2024-03-28T08:04:27.595Z,25.61
2024-03-28T08:05:27.555Z,25.53
2024-03-28T08:06:27.538Z,25.58
2024-03-28T08:07:27.552Z,25.56
2024-03-28T08:08:27.543Z,25.56
2024-03-28T08:09:27.567Z,25.60
2024-03-28T08:10:27.636Z,25.60
2024-03-28T08:11:27.646Z,25.58
2024-03-28T08:12:27.669Z,25.61
2024-03-28T08:13:27.735Z,25.63
2024-03-28T08:14:27.733Z,25.60
2024-03-28T08:15:27.791Z,25.58
2024-03-28T08:16:27.838Z,25.58
2024-03-28T08:17:27.897Z,25.65
2024-03-28T08:18:27.893Z,25.61
2024-03-28T08:19:27.964Z,25.59
2024-03-28T08:20:27.973Z,25.61
2024-03-28T08:21:28.000Z,25.61
2024-03-28T08:22:28.074Z,25.61
2024-03-28T08:23:28.072Z,25.59
2024-03-28T08:24:28.098Z,25.58
2024-03-28T08:25:28.166Z,25.44
2024-03-28T08:26:28.200Z,25.50
2024-03-28T08:27:28.212Z,25.52
2024-03-28T08:28:28.264Z,25.46
2024-03-28T08:29:28.266Z,25.40
2024-03-28T08:30:28.888Z,25.48
2024-03-28T08:31:28.372Z,25.49
2024-03-28T08:32:28.426Z,25.45
2024-03-28T08:33:28.427Z,25.40
2024-03-28T08:34:28.470Z,25.39
2024-03-28T08:35:28.511Z,25.44
2024-03-28T08:36:28.544Z,25.41
2024-03-28T08:37:28.599Z,25.45
2024-03-28T08:38:28.627Z,25.44
2024-03-28T08:39:28.671Z,25.38
2024-03-28T08:40:28.716Z,25.30
2024-03-28T08:41:28.763Z,25.38
2024-03-28T08:42:28.799Z,25.40
2024-03-28T08:43:28.817Z,25.47
2024-03-28T08:44:28.887Z,25.45
2024-03-28T08:45:28.909Z,25.45
2024-03-28T08:46:28.935Z,25.45
2024-03-28T08:47:29.043Z,25.46
2024-03-28T08:48:28.969Z,25.52
2024-03-28T08:49:28.990Z,25.41
2024-03-28T08:50:28.996Z,25.38
2024-03-28T08:51:28.961Z,25.42
2024-03-28T08:52:28.993Z,25.40
2024-03-28T08:53:28.958Z,25.44
2024-03-28T08:54:28.956Z,25.37
2024-03-28T08:55:28.968Z,25.34
2024-03-28T08:56:30.678Z,25.34
2024-03-28T08:57:29.249Z,25.40
2024-03-28T08:58:29.228Z,25.42
2024-03-28T08:59:29.116Z,25.45
2024-03-28T09:00:29.111Z,25.47
2024-03-28T09:01:28.948Z,25.43
2024-03-28T09:02:28.951Z,25.48
2024-03-28T09:03:28.909Z,25.51
2024-03-28T09:04:28.902Z,25.48
2024-03-28T09:05:28.892Z,25.47
2024-03-28T09:06:28.906Z,25.46
2024-03-28T09:07:28.918Z,25.46
2024-03-28T09:08:28.891Z,25.47
2024-03-28T09:09:28.948Z,25.50
2024-03-28T09:10:28.891Z,25.50
2024-03-28T09:11:28.892Z,25.47
2024-03-28T09:12:28.902Z,25.49
2024-03-28T09:13:28.929Z,25.48
2024-03-28T09:14:28.909Z,25.48
2024-03-28T09:15:28.978Z,25.46
2024-03-28T09:16:28.994Z,25.48
2024-03-28T09:17:29.029Z,25.42
2024-03-28T09:18:29.098Z,25.44
2024-03-28T09:19:29.158Z,25.42
2024-03-28T09:20:29.115Z,25.45
2024-03-28T09:21:29.227Z,25.36
2024-03-28T09:22:29.201Z,25.28
2024-03-28T09:23:29.280Z,25.30
2024-03-28T09:24:29.299Z,25.34
2024-03-28T09:25:29.311Z,25.38
2024-03-28T09:26:29.333Z,25.40
2024-03-28T09:27:29.386Z,25.39
2024-03-28T09:28:29.430Z,25.38
2024-03-28T09:29:29.447Z,25.38
2024-03-28T09:30:29.506Z,25.33
2024-03-28T09:31:29.525Z,25.36
2024-03-28T09:32:30.187Z,25.36
2024-03-28T09:33:29.630Z,25.34
2024-03-28T09:34:29.621Z,25.40
2024-03-28T09:35:29.632Z,25.33
2024-03-28T09:36:29.698Z,25.36
2024-03-28T09:37:29.603Z,25.37
2024-03-28T09:38:29.599Z,25.33
2024-03-28T09:39:29.575Z,25.38
2024-03-28T09:40:29.678Z,25.42
2024-03-28T09:41:29.604Z,25.42
2024-03-28T09:42:29.589Z,25.38
2024-03-28T09:43:29.628Z,25.34
2024-03-28T09:44:29.586Z,25.35
2024-03-28T09:45:29.595Z,25.36
2024-03-28T09:46:29.666Z,25.41
2024-03-28T09:47:29.634Z,25.42
2024-03-28T09:48:29.595Z,25.45
2024-03-28T09:49:29.653Z,25.46
2024-03-28T09:50:29.624Z,25.41
2024-03-28T09:51:29.697Z,25.35
2024-03-28T09:52:29.742Z,25.39
2024-03-28T09:53:29.765Z,25.41
2024-03-28T09:54:29.768Z,25.38
2024-03-28T09:55:29.908Z,25.43
2024-03-28T09:56:29.827Z,25.48
2024-03-28T09:57:29.875Z,25.47
2024-03-28T09:58:29.908Z,25.48
2024-03-28T09:59:29.932Z,25.44
2024-03-28T10:00:30.010Z,25.45
2024-03-28T10:01:30.013Z,25.45
2024-03-28T10:02:30.077Z,25.44
2024-03-28T10:03:30.081Z,25.45
2024-03-28T10:04:30.091Z,25.45
2024-03-28T10:05:30.112Z,25.46
2024-03-28T10:06:30.133Z,25.44
2024-03-28T10:07:30.168Z,25.41
2024-03-28T10:08:30.218Z,25.45
2024-03-28T10:09:30.220Z,25.45
2024-03-28T10:10:30.262Z,25.44
2024-03-28T10:11:30.273Z,25.45
2024-03-28T10:12:30.319Z,25.45
2024-03-28T10:13:30.314Z,25.48
2024-03-28T10:14:30.406Z,25.46
2024-03-28T10:15:30.553Z,25.46
2024-03-28T10:16:30.538Z,25.47
2024-03-28T10:17:30.605Z,25.45
2024-03-28T10:18:30.543Z,25.46
2024-03-28T10:19:30.554Z,25.44
2024-03-28T10:20:30.547Z,25.45
2024-03-28T10:21:30.547Z,25.45
2024-03-28T10:22:30.580Z,25.46
2024-03-28T10:23:30.561Z,25.45
2024-03-28T10:24:30.555Z,25.43
2024-03-28T10:25:30.596Z,25.43
2024-03-28T10:26:30.563Z,25.43
2024-03-28T10:27:30.564Z,25.49
2024-03-28T10:28:30.578Z,25.47
2024-03-28T10:29:30.560Z,25.37
2024-03-28T10:30:30.572Z,25.34
2024-03-28T10:31:30.550Z,25.37
2024-03-28T10:32:30.549Z,25.41
2024-03-28T10:33:30.591Z,25.45
2024-03-28T10:34:30.574Z,25.45
2024-03-28T10:35:30.548Z,25.40
2024-03-28T10:36:30.551Z,25.42
2024-03-28T10:37:40.464Z,25.40
2024-03-28T10:38:31.576Z,25.47
2024-03-28T10:39:30.548Z,25.46
2024-03-28T10:40:30.565Z,25.41
2024-03-28T10:41:30.563Z,25.42
2024-03-28T10:42:30.553Z,25.44
2024-03-28T10:43:30.568Z,25.39
2024-03-28T10:44:30.552Z,25.42
2024-03-28T10:45:30.565Z,25.46
2024-03-28T10:46:30.558Z,25.39
2024-03-28T10:47:30.557Z,25.37
2024-03-28T10:48:30.551Z,25.34
2024-03-28T10:49:30.535Z,25.39
2024-03-28T10:50:30.543Z,25.42
2024-03-28T10:51:30.534Z,25.34
2024-03-28T10:52:30.536Z,25.35
2024-03-28T10:53:30.559Z,25.39
2024-03-28T10:54:30.535Z,25.42
2024-03-28T10:55:32.756Z,25.38
2024-03-28T10:56:30.527Z,25.41
2024-03-28T10:57:30.516Z,25.38
2024-03-28T10:58:30.524Z,25.44
2024-03-28T10:59:30.508Z,25.41
2024-03-28T11:00:30.547Z,25.42
2024-03-28T11:01:32.850Z,25.44
2024-03-28T11:02:30.654Z,25.46
2024-03-28T11:03:30.762Z,25.51
2024-03-28T11:04:30.864Z,25.49
2024-03-28T11:05:30.950Z,25.48
2024-03-28T11:06:30.940Z,25.46
2024-03-28T11:07:30.957Z,25.44
2024-03-28T11:08:30.956Z,25.39
2024-03-28T11:09:30.958Z,25.39
2024-03-28T11:10:30.974Z,25.39
2024-03-28T11:11:31.072Z,25.39
2024-03-28T11:12:31.071Z,25.40
2024-03-28T11:13:31.098Z,25.42
2024-03-28T11:14:31.073Z,25.42
2024-03-28T11:15:31.072Z,25.37
2024-03-28T11:16:31.061Z,25.38
2024-03-28T11:17:31.060Z,25.41
2024-03-28T11:18:31.066Z,25.32
2024-03-28T11:19:33.541Z,25.35
2024-03-28T11:20:31.039Z,25.39
2024-03-28T11:21:31.055Z,25.34
2024-03-28T11:22:31.038Z,25.40
2024-03-28T11:23:31.049Z,25.43
2024-03-28T11:24:31.045Z,25.38
2024-03-28T11:25:31.065Z,25.37
2024-03-28T11:26:31.027Z,25.41
2024-03-28T11:27:31.041Z,25.41
2024-03-28T11:28:31.019Z,25.46
2024-03-28T11:29:31.005Z,25.47
2024-03-28T11:30:30.993Z,25.47
2024-03-28T11:31:30.999Z,25.43
2024-03-28T11:32:30.983Z,25.41
2024-03-28T11:33:30.963Z,25.50
2024-03-28T11:34:30.968Z,25.44
2024-03-28T11:35:30.955Z,25.47
2024-03-28T11:36:30.950Z,25.46
2024-03-28T11:37:30.970Z,25.38
2024-03-28T11:38:30.950Z,25.45
2024-03-28T11:39:30.932Z,25.48
2024-03-28T11:40:30.945Z,25.46
2024-03-28T11:41:30.968Z,25.49
2024-03-28T11:42:35.941Z,25.43
2024-03-28T11:43:31.927Z,25.42
2024-03-28T11:44:30.924Z,25.43
2024-03-28T11:45:30.922Z,25.41
2024-03-28T11:46:30.932Z,25.42
2024-03-28T11:47:33.115Z,25.40
2024-03-28T11:48:30.929Z,25.42
2024-03-28T11:49:30.915Z,25.39
2024-03-28T11:50:31.642Z,25.37
2024-03-28T11:51:30.945Z,25.44
2024-03-28T11:52:30.906Z,25.39
2024-03-28T11:53:30.900Z,25.35
2024-03-28T11:54:30.897Z,25.35
2024-03-28T11:55:30.893Z,25.30
2024-03-28T11:56:32.339Z,25.31
2024-03-28T11:57:30.890Z,25.29
2024-03-28T11:58:30.891Z,25.31
2024-03-28T11:59:30.900Z,25.34
2024-03-28T12:00:30.895Z,25.38
2024-03-28T12:01:30.906Z,25.42
2024-03-28T12:02:30.883Z,25.42
2024-03-28T12:03:30.917Z,25.47
2024-03-28T12:04:30.882Z,25.45
2024-03-28T12:05:30.878Z,25.49
2024-03-28T12:06:30.859Z,25.51
2024-03-28T12:07:30.852Z,25.47
2024-03-28T12:08:35.146Z,25.47
2024-03-28T12:09:31.878Z,25.44
2024-03-28T12:10:30.894Z,25.46
2024-03-28T12:11:30.864Z,25.47
2024-03-28T12:12:30.863Z,25.45
2024-03-28T12:13:30.838Z,25.47
2024-03-28T12:14:30.833Z,25.50
2024-03-28T12:15:30.827Z,25.49
2024-03-28T12:16:30.827Z,25.50
2024-03-28T12:17:30.806Z,25.45
2024-03-28T12:18:30.825Z,25.46
2024-03-28T12:19:30.800Z,25.49
2024-03-28T12:20:30.821Z,25.46
2024-03-28T12:21:30.795Z,25.45
2024-03-28T12:22:30.802Z,25.46
2024-03-28T12:23:30.784Z,25.42
2024-03-28T12:24:30.785Z,25.44
2024-03-28T12:25:30.780Z,25.46
2024-03-28T12:26:32.766Z,25.48
2024-03-28T12:27:30.792Z,25.47
2024-03-28T12:28:30.762Z,25.46
2024-03-28T12:29:30.751Z,25.43
2024-03-28T12:30:30.750Z,25.47
2024-03-28T12:31:30.759Z,25.46
2024-03-28T12:32:30.735Z,25.43
2024-03-28T12:33:30.751Z,25.45
2024-03-28T12:34:30.724Z,25.40
2024-03-28T12:35:30.744Z,25.39
2024-03-28T12:36:33.562Z,25.42
2024-03-28T12:37:30.732Z,25.43
2024-03-28T12:38:30.707Z,25.46
2024-03-28T12:39:30.727Z,25.45
2024-03-28T12:40:30.737Z,25.42
2024-03-28T12:41:30.700Z,25.45
2024-03-28T12:42:30.710Z,25.46
2024-03-28T12:43:30.711Z,25.45
2024-03-28T12:44:30.696Z,25.45
2024-03-28T12:45:30.676Z,25.49
2024-03-28T12:46:30.715Z,25.49
2024-03-28T12:47:30.719Z,25.48
2024-03-28T12:48:30.682Z,25.53
2024-03-28T12:49:30.675Z,25.52
2024-03-28T12:50:30.659Z,25.56
2024-03-28T12:51:30.655Z,25.51
2024-03-28T12:52:30.647Z,25.55